Time;durP1;ratioP1;P1;durP2;ratioP2;P2;SDS_P1;SDS_P2;PMS_P1;PMS_P2;Temp;Humidity;BMP_temperature;BMP_pressure;BME280_temperature;BME280_humidity;BME280_pressure;Samples;Min_cycle;Max_cycle;Signal;HPM_P1;HPM_P2
2022/01/23 00:02:07;;;;;;;21.27;17.10;;;7.40;99.90;;;;;;5011602;28;20508;-69
2022/01/23 00:04:34;;;;;;;22.27;17.77;;;7.40;99.90;;;;;;4997510;28;20049;-69
2022/01/23 00:07:07;;;;;;;21.77;17.52;;;7.40;99.90;;;;;;4996009;28;20170;-69
2022/01/23 00:09:35;;;;;;;19.90;16.45;;;7.50;99.80;;;;;;4991962;28;20141;-68
2022/01/23 00:12:06;;;;;;;20.67;16.70;;;7.50;99.90;;;;;;4991601;28;20065;-69
2022/01/23 00:17:22;;;;;;;18.98;15.75;;;7.50;99.90;;;;;;4992995;28;20050;-69
2022/01/23 00:19:52;;;;;;;17.90;16.00;;;7.50;99.90;;;;;;4991731;28;20046;-69
2022/01/23 00:22:21;;;;;;;19.73;16.77;;;7.50;99.90;;;;;;4991629;28;20054;-69
2022/01/23 00:32:46;;;;;;;19.13;17.08;;;7.50;99.90;;;;;;5011026;28;20576;-69
2022/01/23 00:35:12;;;;;;;18.00;15.98;;;7.50;99.90;;;;;;4994681;28;20104;-69
2022/01/23 00:37:40;;;;;;;17.58;14.95;;;7.50;99.90;;;;;;5010725;28;20493;-69
2022/01/23 00:40:07;;;;;;;17.20;14.73;;;7.50;99.80;;;;;;5012215;28;20461;-69
2022/01/23 00:42:35;;;;;;;20.80;17.10;;;7.40;99.90;;;;;;4994341;28;20046;-69
2022/01/23 00:45:53;;;;;;;16.02;14.18;;;7.50;99.90;;;;;;5011993;28;20093;-69
2022/01/23 00:47:51;;;;;;;15.90;14.27;;;7.50;99.90;;;;;;5017438;28;20132;-69
2022/01/23 00:50:18;;;;;;;17.95;14.48;;;7.50;99.90;;;;;;5030587;28;20113;-55
2022/01/23 00:52:45;;;;;;;44.58;34.13;;;7.50;99.90;;;;;;5032014;28;20053;-69
2022/01/23 00:55:12;;;;;;;24.45;18.48;;;7.50;99.90;;;;;;5031674;28;20049;-68
2022/01/23 00:57:39;;;;;;;19.38;16.17;;;7.50;99.90;;;;;;5030189;28;20061;-68
2022/01/23 01:00:06;;;;;;;18.80;16.17;;;7.50;99.90;;;;;;5031623;28;20132;-68
2022/01/23 01:02:33;;;;;;;17.65;14.25;;;7.50;99.90;;;;;;4997460;28;20515;-68
2022/01/23 01:05:00;;;;;;;17.27;15.02;;;7.50;99.90;;;;;;5013348;28;20129;-69
2022/01/23 01:07:27;;;;;;;18.33;16.27;;;7.50;99.90;;;;;;5035395;28;20081;-69
2022/01/23 01:09:59;;;;;;;18.08;15.13;;;7.50;99.90;;;;;;5034241;28;20107;-69
2022/01/23 01:12:36;;;;;;;16.83;14.32;;;7.50;99.90;;;;;;5033786;28;20045;-71
2022/01/23 01:33:57;;;;;;;14.55;12.18;;;7.50;99.90;;;;;;5035116;28;20085;-69
2022/01/23 01:36:31;;;;;;;14.38;12.18;;;7.50;99.90;;;;;;5018032;28;20041;-69
2022/01/23 01:38:58;;;;;;;13.20;11.40;;;7.50;99.90;;;;;;5018533;28;20052;-69
2022/01/23 01:41:25;;;;;;;14.05;11.95;;;7.50;99.90;;;;;;5017173;28;20136;-69
2022/01/23 01:43:53;;;;;;;14.23;12.73;;;7.50;99.90;;;;;;5033335;28;20401;-69
2022/01/23 01:46:20;;;;;;;14.93;12.82;;;7.50;99.90;;;;;;5033650;28;20096;-69
2022/01/23 01:48:47;;;;;;;13.55;11.95;;;7.50;99.90;;;;;;5017528;28;20088;-69
2022/01/23 01:51:18;;;;;;;15.52;13.07;;;7.40;99.90;;;;;;5017043;28;20416;-69
2022/01/23 01:53:51;;;;;;;12.55;10.65;;;7.50;99.90;;;;;;5033033;28;20050;-69
2022/01/23 01:56:18;;;;;;;13.23;11.75;;;7.40;99.90;;;;;;5018104;28;20053;-69
2022/01/23 02:09:19;;;;;;;12.38;11.10;;;7.40;99.90;;;;;;5033068;28;20049;-69
2022/01/23 02:55:39;;;;;;;13.25;11.70;;;7.30;99.90;;;;;;5032889;28;20542;-69
2022/01/23 02:58:11;;;;;;;12.90;11.60;;;7.30;99.90;;;;;;5015712;28;20124;-69
2022/01/23 03:00:48;;;;;;;13.68;12.18;;;7.30;99.90;;;;;;5015848;28;20080;-69
2022/01/23 03:03:23;;;;;;;12.55;11.25;;;7.30;99.90;;;;;;5015546;28;20045;-69
2022/01/23 03:14:13;;;;;;;14.20;12.70;;;7.30;99.90;;;;;;4981322;28;20132;-69
2022/01/23 03:27:37;;;;;;;14.98;12.18;;;7.20;99.90;;;;;;5015688;28;20398;-69
2022/01/23 03:30:15;;;;;;;12.80;11.23;;;7.20;99.90;;;;;;5031619;28;20045;-69
2022/01/23 03:32:47;;;;;;;12.93;11.35;;;7.20;99.90;;;;;;5032193;28;20057;-69
2022/01/23 03:35:15;;;;;;;15.07;12.95;;;7.30;99.90;;;;;;5003528;28;20073;-68
2022/01/23 03:37:42;;;;;;;15.88;12.98;;;7.30;99.90;;;;;;5016689;28;20057;-69
2022/01/23 03:40:10;;;;;;;15.85;13.15;;;7.30;99.90;;;;;;5015300;28;20388;-69
2022/01/23 03:42:40;;;;;;;14.60;12.50;;;7.30;99.90;;;;;;5014919;28;20053;-69
2022/01/23 03:49:30;;;;;;;16.65;13.57;;;7.20;99.90;;;;;;5032173;28;20575;-69
2022/01/23 03:50:41;;;;;;;15.73;13.68;;;7.20;99.90;;;;;;5017736;28;20087;-68
2022/01/23 03:53:09;;;;;;;16.50;13.75;;;7.30;99.90;;;;;;5011142;28;20489;-69
2022/01/23 03:55:36;;;;;;;17.08;13.55;;;7.30;99.90;;;;;;5011656;28;20062;-69
2022/01/23 03:58:03;;;;;;;15.18;13.57;;;7.20;99.90;;;;;;5012527;28;20054;-69
2022/01/23 04:00:33;;;;;;;14.27;12.55;;;7.20;99.90;;;;;;5012580;28;20054;-69
2022/01/23 04:03:00;;;;;;;14.02;12.38;;;7.20;99.90;;;;;;4995395;28;20484;-69
2022/01/23 04:05:27;;;;;;;18.83;14.90;;;7.20;99.90;;;;;;4995022;28;20050;-69
2022/01/23 04:07:54;;;;;;;16.23;13.20;;;7.20;99.90;;;;;;5007163;28;20049;-68
2022/01/23 04:10:25;;;;;;;16.98;13.73;;;7.20;99.90;;;;;;4993986;28;20503;-70
2022/01/23 04:13:07;;;;;;;16.58;13.65;;;7.20;99.90;;;;;;4994436;28;20053;-69
2022/01/23 04:15:48;;;;;;;17.20;14.00;;;7.20;99.90;;;;;;5012900;28;20444;-69
2022/01/23 05:04:24;;;;;;;16.90;14.00;;;7.10;99.90;;;;;;5029731;28;20548;-69
2022/01/23 05:07:09;;;;;;;18.05;14.85;;;7.10;99.90;;;;;;5011540;28;20055;-68
2022/01/23 05:09:36;;;;;;;16.45;14.68;;;7.10;99.90;;;;;;5055277;28;20056;-68
2022/01/23 05:12:05;;;;;;;15.82;13.32;;;7.10;99.90;;;;;;5036886;28;20055;-69
2022/01/23 05:14:36;;;;;;;15.88;13.15;;;7.10;99.90;;;;;;5020876;28;20056;-69
2022/01/23 05:17:04;;;;;;;16.90;13.95;;;7.10;99.90;;;;;;5037973;28;20411;-69
2022/01/23 05:19:32;;;;;;;15.85;13.73;;;7.20;99.90;;;;;;5021185;28;20057;-69
2022/01/23 05:24:42;;;;;;;16.92;13.20;;;7.20;99.90;;;;;;5038837;28;20048;-68
2022/01/23 05:27:09;;;;;;;20.13;15.40;;;7.10;99.90;;;;;;5037919;28;20044;-69
2022/01/23 05:29:37;;;;;;;17.38;14.18;;;7.10;99.90;;;;;;5044629;28;20477;-69
2022/01/23 05:32:04;;;;;;;17.38;14.10;;;7.10;99.90;;;;;;5017174;28;20056;-70
2022/01/23 05:34:31;;;;;;;19.48;15.27;;;7.20;99.90;;;;;;5017722;28;20061;-69
2022/01/23 05:36:59;;;;;;;18.92;15.23;;;7.20;99.90;;;;;;5001186;28;20133;-68
2022/01/23 05:39:30;;;;;;;23.00;16.42;;;7.20;99.90;;;;;;5017497;28;20136;-69
2022/01/23 05:42:04;;;;;;;15.52;13.43;;;7.20;99.90;;;;;;4986114;28;20141;-68
2022/01/23 05:44:31;;;;;;;17.60;14.40;;;7.10;99.90;;;;;;5034240;28;20057;-69
2022/01/23 05:46:58;;;;;;;17.20;14.77;;;7.10;99.90;;;;;;5035021;28;20049;-69
2022/01/23 05:49:26;;;;;;;18.70;14.55;;;7.10;99.90;;;;;;5000804;28;20053;-69
2022/01/23 05:51:54;;;;;;;20.83;14.80;;;7.10;99.90;;;;;;5000820;28;20053;-69
2022/01/23 05:54:21;;;;;;;19.08;14.90;;;7.10;99.90;;;;;;5016615;28;20049;-69
2022/01/23 05:56:48;;;;;;;21.00;15.65;;;7.10;99.90;;;;;;5034457;28;20045;-69
2022/01/23 05:59:16;;;;;;;18.75;14.50;;;7.10;99.90;;;;;;5034554;28;20049;-70
2022/01/23 06:01:43;;;;;;;16.88;14.30;;;7.20;99.90;;;;;;5034702;28;20139;-68
2022/01/23 06:04:10;;;;;;;17.88;14.57;;;7.10;99.90;;;;;;5016506;28;20064;-68
2022/01/23 06:06:37;;;;;;;19.13;15.57;;;7.20;99.90;;;;;;5017916;28;20128;-69
2022/01/23 06:09:04;;;;;;;19.17;15.57;;;7.20;99.90;;;;;;5032966;28;20073;-69
2022/01/23 06:11:31;;;;;;;18.83;15.43;;;7.10;99.90;;;;;;5016358;28;20049;-69
2022/01/23 06:13:58;;;;;;;17.73;15.13;;;7.20;99.90;;;;;;5032581;28;20045;-69
2022/01/23 06:16:25;;;;;;;19.20;15.45;;;7.20;99.90;;;;;;5033530;28;20079;-69
2022/01/23 06:18:52;;;;;;;19.40;15.45;;;7.20;99.90;;;;;;5034032;28;20612;-69
2022/01/23 06:21:21;;;;;;;17.58;15.38;;;7.10;99.90;;;;;;5034081;28;20046;-69
2022/01/23 06:23:55;;;;;;;19.88;14.70;;;7.10;99.90;;;;;;5033040;28;20081;-69
2022/01/23 06:26:22;;;;;;;18.92;14.88;;;7.20;99.90;;;;;;5032736;28;20134;-69
2022/01/23 06:28:55;;;;;;;19.52;15.00;;;7.10;99.90;;;;;;5013710;28;20124;-69
2022/01/23 06:31:22;;;;;;;19.10;15.18;;;7.20;99.90;;;;;;5016560;28;20061;-69
2022/01/23 06:33:52;;;;;;;21.50;17.00;;;7.20;99.90;;;;;;5016602;28;20420;-69
2022/01/23 06:36:19;;;;;;;17.42;14.85;;;7.20;99.90;;;;;;5016652;28;20493;-69
2022/01/23 06:38:46;;;;;;;22.95;17.67;;;7.20;99.90;;;;;;5032258;28;20084;-69
2022/01/23 06:41:13;;;;;;;20.45;16.98;;;7.10;99.90;;;;;;5033468;28;20085;-69
2022/01/23 06:43:40;;;;;;;17.13;15.00;;;7.10;99.90;;;;;;5033553;28;20064;-69
2022/01/23 06:46:07;;;;;;;20.52;15.93;;;7.20;99.90;;;;;;5035651;28;20046;-69
2022/01/23 06:48:35;;;;;;;16.58;14.50;;;7.10;99.90;;;;;;5028085;28;20057;-69
2022/01/23 06:51:01;;;;;;;20.27;16.73;;;7.10;99.90;;;;;;5013792;28;20045;-69
2022/01/23 06:53:29;;;;;;;21.77;17.50;;;7.10;99.90;;;;;;4996499;28;20104;-69
2022/01/23 06:55:55;;;;;;;20.15;16.55;;;7.20;99.90;;;;;;4996182;28;20060;-69
2022/01/23 06:58:22;;;;;;;19.10;15.27;;;7.20;99.90;;;;;;5013313;28;20132;-68
2022/01/23 07:00:49;;;;;;;21.30;17.10;;;7.20;99.90;;;;;;5020782;28;20081;-69
2022/01/23 07:03:16;;;;;;;20.10;15.82;;;7.20;99.90;;;;;;5028233;28;20508;-69
2022/01/23 07:05:43;;;;;;;18.88;15.85;;;7.20;99.90;;;;;;5035302;28;20500;-69
2022/01/23 07:08:11;;;;;;;16.42;14.13;;;7.20;99.90;;;;;;5033371;28;20038;-69
2022/01/23 07:10:38;;;;;;;21.50;16.35;;;7.20;99.90;;;;;;5015992;28;20412;-69
2022/01/23 07:13:05;;;;;;;21.27;17.33;;;7.20;99.90;;;;;;5032250;28;20453;-69
2022/01/23 07:15:32;;;;;;;19.35;16.13;;;7.20;99.90;;;;;;4999352;28;20041;-69
2022/01/23 07:17:59;;;;;;;21.98;18.00;;;7.20;99.90;;;;;;5016592;28;20057;-69
2022/01/23 07:20:26;;;;;;;17.45;14.80;;;7.20;99.90;;;;;;5000563;28;20049;-69
2022/01/23 07:22:54;;;;;;;19.67;15.43;;;7.20;99.90;;;;;;5034033;28;20094;-69
2022/01/23 07:25:21;;;;;;;19.23;16.10;;;7.20;99.90;;;;;;5032851;28;20045;-69
2022/01/23 07:27:53;;;;;;;21.48;17.85;;;7.20;99.90;;;;;;5015532;28;20471;-69
2022/01/23 07:30:35;;;;;;;23.60;19.58;;;7.20;99.90;;;;;;5032292;28;20055;-69
2022/01/23 07:33:02;;;;;;;21.08;17.08;;;7.20;99.90;;;;;;5001168;28;20045;-69
2022/01/23 07:35:29;;;;;;;20.38;17.13;;;7.20;99.90;;;;;;5015497;28;20053;-69
2022/01/23 07:37:56;;;;;;;43.33;33.13;;;7.20;99.90;;;;;;5014995;28;20140;-69
2022/01/23 07:40:23;;;;;;;42.70;32.15;;;7.20;99.90;;;;;;5014994;28;20049;-69
2022/01/23 07:42:50;;;;;;;35.78;26.38;;;7.20;99.90;;;;;;5032612;28;20041;-69
2022/01/23 07:45:19;;;;;;;24.80;19.25;;;7.20;99.90;;;;;;5014837;28;20483;-69
2022/01/23 07:47:46;;;;;;;22.88;17.70;;;7.20;99.90;;;;;;5032379;28;20147;-69
2022/01/23 07:50:16;;;;;;;23.70;17.77;;;7.20;99.90;;;;;;4999410;28;20443;-69
2022/01/23 07:52:43;;;;;;;20.17;15.75;;;7.20;99.90;;;;;;4998850;28;20416;-69
2022/01/23 07:55:14;;;;;;;19.17;16.00;;;7.20;99.90;;;;;;5015211;28;20042;-69
2022/01/23 07:57:44;;;;;;;21.30;16.50;;;7.20;99.90;;;;;;5014764;28;20397;-69
2022/01/23 08:00:22;;;;;;;21.95;17.67;;;7.20;99.90;;;;;;4998792;28;20053;-69
2022/01/23 08:02:49;;;;;;;20.80;15.50;;;7.30;99.90;;;;;;5032467;28;20404;-69
2022/01/23 08:05:16;;;;;;;18.83;15.80;;;7.20;99.90;;;;;;4998483;28;20049;-69
2022/01/23 08:07:43;;;;;;;27.02;20.02;;;7.20;99.90;;;;;;5036960;28;20578;-69
2022/01/23 08:10:10;;;;;;;22.95;18.85;;;7.20;99.90;;;;;;5014987;28;20048;-70
2022/01/23 08:12:39;;;;;;;23.08;18.45;;;7.20;99.90;;;;;;5007087;28;20045;-69
2022/01/23 08:15:06;;;;;;;25.75;18.40;;;7.20;99.90;;;;;;5033963;28;20037;-69
2022/01/23 08:17:33;;;;;;;23.83;18.52;;;7.20;99.90;;;;;;5013852;28;20134;-69
2022/01/23 08:20:01;;;;;;;24.25;18.98;;;7.20;99.90;;;;;;5014307;28;20124;-69
2022/01/23 08:22:33;;;;;;;24.52;18.63;;;7.20;99.90;;;;;;5014377;28;20815;-69
2022/01/23 08:25:02;;;;;;;22.50;17.45;;;7.20;99.90;;;;;;4994349;28;20125;-68
2022/01/23 08:27:29;;;;;;;24.67;18.83;;;7.20;99.90;;;;;;4993881;28;20056;-70
2022/01/23 08:29:57;;;;;;;29.67;21.48;;;7.20;99.90;;;;;;5010073;28;20132;-67
2022/01/23 08:32:24;;;;;;;24.67;19.35;;;7.20;99.90;;;;;;4997799;28;20057;-69
2022/01/23 08:34:52;;;;;;;25.17;19.42;;;7.20;99.90;;;;;;5031495;28;20041;-69
2022/01/23 08:37:19;;;;;;;21.80;18.08;;;7.20;99.90;;;;;;5020015;28;20099;-69
2022/01/23 08:39:46;;;;;;;22.83;18.27;;;7.20;99.90;;;;;;4996356;28;21604;-69
2022/01/23 08:42:15;;;;;;;25.13;19.60;;;7.20;99.90;;;;;;5017713;28;20046;-69
2022/01/23 08:44:43;;;;;;;22.97;17.40;;;7.20;99.90;;;;;;5010461;28;20064;-69
2022/01/23 08:47:10;;;;;;;26.83;17.92;;;7.20;99.90;;;;;;5009665;28;20299;-69
2022/01/23 08:49:44;;;;;;;23.52;18.67;;;7.20;99.90;;;;;;5018414;28;20056;-69
2022/01/23 08:52:12;;;;;;;24.33;18.48;;;7.20;99.90;;;;;;5010434;28;20096;-69
2022/01/23 08:54:45;;;;;;;26.75;19.45;;;7.20;99.90;;;;;;4995297;28;20042;-70
2022/01/23 08:57:12;;;;;;;22.23;16.85;;;7.20;99.90;;;;;;4996438;28;20494;-69
2022/01/23 08:59:41;;;;;;;21.35;17.52;;;7.20;99.90;;;;;;4995677;28;20055;-69
2022/01/23 09:02:09;;;;;;;22.80;17.92;;;7.20;99.90;;;;;;5028699;28;20076;-69
2022/01/23 09:04:36;;;;;;;21.35;17.15;;;7.20;99.90;;;;;;5027983;28;20054;-68
2022/01/23 09:07:03;;;;;;;21.75;17.13;;;7.20;99.90;;;;;;5017401;28;20077;-70
2022/01/23 09:09:36;;;;;;;24.55;18.35;;;7.20;99.90;;;;;;5027342;28;20049;-69
2022/01/23 09:12:07;;;;;;;25.50;18.65;;;7.30;99.90;;;;;;5013892;28;20511;-70
2022/01/23 09:14:34;;;;;;;22.98;18.13;;;7.30;99.90;;;;;;5018172;28;20058;-69
2022/01/23 09:17:02;;;;;;;20.65;16.70;;;7.30;99.90;;;;;;5029603;28;20041;-69
2022/01/23 09:19:31;;;;;;;23.80;17.08;;;7.30;99.90;;;;;;5033568;28;20079;-69
2022/01/23 09:21:59;;;;;;;20.65;16.45;;;7.30;99.90;;;;;;5051321;28;20061;-68
2022/01/23 09:24:27;;;;;;;17.80;15.50;;;7.30;99.90;;;;;;5015669;28;20120;-69
2022/01/23 09:27:01;;;;;;;23.55;17.50;;;7.30;99.90;;;;;;5022301;28;20129;-68
2022/01/23 09:29:35;;;;;;;22.63;17.27;;;7.40;99.90;;;;;;5018234;28;20088;-69
2022/01/23 09:32:05;;;;;;;28.20;19.38;;;7.40;99.90;;;;;;5007485;28;20060;-70
2022/01/23 09:34:32;;;;;;;21.90;17.70;;;7.40;99.90;;;;;;5001211;28;20051;-69
2022/01/23 09:37:01;;;;;;;23.55;18.60;;;7.40;99.90;;;;;;5006249;28;20045;-69
2022/01/23 09:39:28;;;;;;;25.75;20.95;;;7.50;99.90;;;;;;5034600;28;20049;-69
2022/01/23 09:42:09;;;;;;;26.80;21.70;;;7.50;99.90;;;;;;5032312;28;20052;-69
2022/01/23 09:44:41;;;;;;;26.52;21.25;;;7.50;99.90;;;;;;5013454;28;20053;-69
2022/01/23 09:47:11;;;;;;;33.13;25.20;;;7.50;99.90;;;;;;5013116;28;20060;-67
2022/01/23 09:49:38;;;;;;;318.63;251.05;;;7.50;99.90;;;;;;4997830;28;20387;-74
2022/01/23 09:52:05;;;;;;;69.88;56.40;;;7.50;99.90;;;;;;5013268;28;20052;-67
2022/01/23 09:54:32;;;;;;;46.30;34.88;;;7.50;99.90;;;;;;5014646;28;20147;-67
2022/01/23 09:57:01;;;;;;;39.42;31.30;;;7.50;99.90;;;;;;5013596;28;20052;-67
2022/01/23 09:59:29;;;;;;;33.60;26.63;;;7.50;99.90;;;;;;4996942;28;20136;-67
2022/01/23 10:01:56;;;;;;;27.33;21.88;;;7.50;99.90;;;;;;4997599;28;20045;-67
2022/01/23 10:04:25;;;;;;;28.42;22.05;;;7.50;99.90;;;;;;5014783;28;20084;-67
2022/01/23 10:06:52;;;;;;;24.33;20.38;;;7.60;99.90;;;;;;4996340;28;20050;-67
2022/01/23 10:09:26;;;;;;;24.85;20.38;;;7.60;99.90;;;;;;5013106;28;20041;-67
2022/01/23 10:11:53;;;;;;;22.17;18.23;;;7.60;99.90;;;;;;4979387;28;20081;-67
2022/01/23 10:14:20;;;;;;;27.17;21.02;;;7.60;99.90;;;;;;5013532;28;20418;-67
2022/01/23 10:16:47;;;;;;;24.85;20.10;;;7.60;99.90;;;;;;5014368;28;20407;-67
2022/01/23 10:19:15;;;;;;;23.17;19.55;;;7.60;99.90;;;;;;5012776;28;20048;-67
2022/01/23 10:21:43;;;;;;;23.42;19.08;;;7.60;99.90;;;;;;5011990;28;20157;-68
2022/01/23 10:24:12;;;;;;;24.10;20.10;;;7.60;99.90;;;;;;5013060;28;20104;-67
2022/01/23 10:26:53;;;;;;;22.77;18.55;;;7.70;99.90;;;;;;5012278;28;20121;-67
2022/01/23 10:29:32;;;;;;;93.75;80.75;;;7.70;99.90;;;;;;5009865;28;20056;-69
2022/01/23 10:32:24;;;;;;;36.42;29.40;;;7.70;99.90;;;;;;4988379;28;20497;-67
2022/01/23 10:34:56;;;;;;;26.48;21.80;;;7.70;98.20;;;;;;5007563;28;20128;-68
2022/01/23 10:37:29;;;;;;;23.40;19.10;;;7.70;97.10;;;;;;4998670;28;20058;-67
2022/01/23 10:40:09;;;;;;;20.92;18.33;;;7.70;99.20;;;;;;5013729;28;20050;-67
2022/01/23 10:48:12;;;;;;;33.97;27.02;;;7.70;97.50;;;;;;5034064;28;20055;-68
2022/01/23 10:50:39;;;;;;;28.75;21.85;;;7.70;97.70;;;;;;5028619;28;20151;-67
2022/01/23 10:53:06;;;;;;;23.48;19.05;;;7.70;96.90;;;;;;5025785;28;20056;-67
2022/01/23 10:55:34;;;;;;;18.50;16.25;;;7.70;95.60;;;;;;5040753;28;20496;-67
2022/01/23 10:58:06;;;;;;;19.05;15.30;;;7.70;95.20;;;;;;5027767;28;20048;-68
2022/01/23 11:00:35;;;;;;;14.93;13.30;;;7.70;95.10;;;;;;4994602;28;20141;-67
2022/01/23 11:03:22;;;;;;;15.95;14.30;;;7.80;95.80;;;;;;5014696;28;20057;-68
2022/01/23 11:05:50;;;;;;;16.42;13.63;;;7.80;93.90;;;;;;5013755;28;20049;-67
2022/01/23 11:08:19;;;;;;;14.93;13.32;;;7.80;94.10;;;;;;5042986;28;20060;-68
2022/01/23 11:10:55;;;;;;;18.77;15.70;;;7.80;94.80;;;;;;5015004;28;20053;-68
2022/01/23 11:19:24;;;;;;;;;;;7.80;97.30;;;;;;5033488;28;20072;-67
2022/01/23 11:21:53;;;;;;;16.60;14.80;;;7.90;95.20;;;;;;5033794;28;20331;-68
2022/01/23 11:24:23;;;;;;;16.40;14.20;;;7.90;96.20;;;;;;4993333;28;20053;-67
2022/01/23 11:27:00;;;;;;;16.30;14.60;;;7.90;96.10;;;;;;5014888;28;20049;-67
2022/01/23 11:29:27;;;;;;;16.67;14.57;;;7.80;96.50;;;;;;5014087;28;20471;-68
2022/01/23 11:31:54;;;;;;;20.02;17.20;;;7.80;94.90;;;;;;4986341;28;20045;-67
2022/01/23 11:34:22;;;;;;;25.30;19.67;;;7.80;97.10;;;;;;5031957;28;20045;-67
2022/01/23 11:36:51;;;;;;;45.55;28.98;;;7.80;95.00;;;;;;5004638;28;20080;-66
2022/01/23 11:40:05;;;;;;;93.55;53.15;;;7.80;94.10;;;;;;5010955;28;20484;-66
2022/01/23 11:56:32;;;;;;;16.80;14.90;;;7.80;93.40;;;;;;5031060;28;20128;-68
2022/01/23 11:59:17;;;;;;;20.80;18.33;;;7.80;94.50;;;;;;5030807;28;20049;-70
2022/01/23 12:01:51;;;;;;;18.98;16.10;;;7.80;93.70;;;;;;5010438;28;20489;-67
2022/01/23 12:04:22;;;;;;;22.85;19.00;;;7.80;94.20;;;;;;5017579;28;20331;-65
2022/01/23 12:07:15;;;;;;;17.38;14.43;;;7.80;93.30;;;;;;5000097;28;20148;-64
2022/01/23 12:09:44;;;;;;;18.15;14.68;;;7.80;92.90;;;;;;5011495;28;20487;-66
2022/01/23 12:18:17;;;;;;;17.88;15.23;;;7.90;92.10;;;;;;5006706;28;20485;-66
2022/01/23 12:20:45;;;;;;;21.90;18.85;;;7.80;93.00;;;;;;5010388;28;20415;-72
2022/01/23 12:23:14;;;;;;;23.70;19.77;;;7.90;94.50;;;;;;5030039;28;20485;-75
2022/01/23 12:25:46;;;;;;;18.17;16.13;;;7.90;94.20;;;;;;5015156;28;20148;-76
2022/01/23 12:28:22;;;;;;;18.95;15.75;;;8.00;92.20;;;;;;5028559;28;20472;-76
2022/01/23 12:30:50;;;;;;;16.27;14.57;;;8.00;93.20;;;;;;5033453;28;20123;-75
2022/01/23 12:33:31;;;;;;;16.35;14.20;;;8.00;93.00;;;;;;5052191;28;20110;-74
2022/01/23 12:36:19;;;;;;;15.77;14.00;;;8.00;92.30;;;;;;5033815;28;20048;-73
2022/01/23 12:38:48;;;;;;;16.25;14.40;;;8.00;93.70;;;;;;5024520;28;20052;-73
2022/01/23 12:41:30;;;;;;;17.25;14.38;;;8.00;93.10;;;;;;5023644;28;20053;-74
2022/01/23 12:44:01;;;;;;;17.05;14.93;;;8.00;92.60;;;;;;5016138;28;20071;-74
2022/01/23 12:46:48;;;;;;;17.67;15.38;;;8.00;92.30;;;;;;5030320;28;20049;-74
2022/01/23 12:49:25;;;;;;;15.93;14.23;;;8.00;92.60;;;;;;5031523;28;20132;-74
2022/01/23 12:51:53;;;;;;;14.85;13.18;;;8.00;92.70;;;;;;5011367;28;20063;-74
2022/01/23 12:54:22;;;;;;;17.48;15.20;;;8.00;93.20;;;;;;5030477;28;20058;-77
2022/01/23 12:56:51;;;;;;;16.25;14.10;;;8.00;92.30;;;;;;5013938;28;20132;-75
2022/01/23 12:59:27;;;;;;;16.45;14.65;;;8.00;93.30;;;;;;4997249;28;20061;-74
2022/01/23 13:02:00;;;;;;;16.38;14.65;;;8.00;93.30;;;;;;5001041;28;20068;-74
2022/01/23 13:04:32;;;;;;;15.35;13.75;;;8.00;91.80;;;;;;4987285;28;20417;-74
2022/01/23 13:07:19;;;;;;;15.98;13.70;;;8.00;91.40;;;;;;5001783;28;20060;-74
2022/01/23 13:12:32;;;;;;;18.05;14.48;;;7.90;92.40;;;;;;5017644;28;20160;-74
2022/01/23 13:31:56;;;;;;;27.75;24.52;;;8.10;93.60;;;;;;5035215;28;20049;-75
2022/01/23 13:34:30;;;;;;;22.73;19.23;;;8.10;93.40;;;;;;5002258;28;20045;-74
2022/01/23 13:37:09;;;;;;;21.02;17.67;;;8.10;92.80;;;;;;5034829;28;20132;-74
2022/01/23 13:39:46;;;;;;;19.88;17.30;;;8.10;92.50;;;;;;5001200;28;20061;-74
2022/01/23 13:42:40;;;;;;;20.63;17.90;;;8.10;92.50;;;;;;5018180;28;20052;-74
2022/01/23 13:59:14;;;;;;;16.27;14.18;;;8.00;90.40;;;;;;5034033;28;20045;-74
2022/01/23 14:01:54;;;;;;;14.65;13.10;;;7.90;91.10;;;;;;5016256;28;20151;-74
2022/01/23 14:04:23;;;;;;;14.60;13.10;;;7.90;88.60;;;;;;5018547;28;20053;-74
2022/01/23 14:06:50;;;;;;;14.20;12.70;;;7.80;90.50;;;;;;5000448;28;20140;-74
2022/01/23 14:09:17;;;;;;;15.63;13.75;;;7.90;90.80;;;;;;5016417;28;20488;-75
2022/01/23 14:11:48;;;;;;;18.08;14.82;;;7.90;91.30;;;;;;4984282;28;20050;-74
2022/01/23 14:14:16;;;;;;;15.60;13.63;;;7.90;90.80;;;;;;5041228;28;20503;-74
2022/01/23 14:16:43;;;;;;;16.35;13.25;;;7.90;90.50;;;;;;5036246;28;20088;-74
2022/01/23 14:19:22;;;;;;;20.00;15.85;;;7.90;91.60;;;;;;5036376;28;20049;-73
2022/01/23 14:21:59;;;;;;;18.33;15.20;;;7.90;91.50;;;;;;5020849;28;20060;-73
2022/01/23 14:24:33;;;;;;;19.45;15.35;;;7.90;91.10;;;;;;5005137;28;20098;-73
2022/01/23 14:27:02;;;;;;;19.65;16.33;;;7.80;91.00;;;;;;5036485;28;20092;-75
2022/01/23 14:29:34;;;;;;;20.67;17.30;;;7.90;92.00;;;;;;5044308;28;20052;-73
2022/01/23 14:32:15;;;;;;;22.10;16.45;;;7.90;91.90;;;;;;4997180;28;20042;-73
2022/01/23 14:34:42;;;;;;;26.48;20.58;;;7.90;91.60;;;;;;4989671;28;20057;-68
2022/01/23 14:37:09;;;;;;;111.22;83.60;;;7.80;92.10;;;;;;5000011;28;20076;-75
2022/01/23 14:39:36;;;;;;;24.80;20.83;;;7.90;91.70;;;;;;5002086;28;20404;-72
2022/01/23 14:42:11;;;;;;;22.27;18.85;;;7.90;91.70;;;;;;5010426;28;20760;-73
2022/01/23 14:44:41;;;;;;;19.48;15.38;;;7.90;91.70;;;;;;4999386;28;20466;-74
2022/01/23 14:47:10;;;;;;;28.65;23.42;;;7.90;91.20;;;;;;5033234;28;20394;-77
2022/01/23 14:49:41;;;;;;;22.20;18.63;;;7.90;91.10;;;;;;5032467;28;20136;-74
2022/01/23 14:52:13;;;;;;;20.38;16.90;;;7.90;91.20;;;;;;5027248;28;20045;-73
2022/01/23 14:54:41;;;;;;;17.88;15.68;;;7.90;90.80;;;;;;5013659;28;20404;-74
2022/01/23 14:57:11;;;;;;;21.10;16.75;;;7.80;90.60;;;;;;5031667;28;20053;-74
2022/01/23 14:59:38;;;;;;;19.38;16.00;;;7.80;91.00;;;;;;4999334;28;20128;-72
2022/01/23 15:02:06;;;;;;;18.48;15.93;;;7.70;91.70;;;;;;5016520;28;20460;-74
2022/01/23 15:04:44;;;;;;;18.10;15.60;;;7.80;92.70;;;;;;5015293;28;20053;-73
2022/01/23 15:07:15;;;;;;;23.05;15.98;;;7.80;91.80;;;;;;5009996;28;20528;-71
2022/01/23 15:09:43;;;;;;;19.00;14.38;;;7.80;92.80;;;;;;5019415;28;20124;-74
2022/01/23 15:12:10;;;;;;;20.00;17.25;;;7.80;92.60;;;;;;5016829;28;20049;-73
2022/01/23 15:14:37;;;;;;;20.95;17.42;;;7.80;93.80;;;;;;5032264;28;20050;-73
2022/01/23 15:17:04;;;;;;;20.52;16.85;;;7.80;93.70;;;;;;5015963;28;20107;-73
2022/01/23 15:19:34;;;;;;;21.85;18.70;;;7.80;93.30;;;;;;5031523;28;20053;-73
2022/01/23 15:22:02;;;;;;;23.95;18.73;;;7.90;93.20;;;;;;5032455;28;20081;-73
2022/01/23 15:24:30;;;;;;;25.08;19.90;;;7.90;92.10;;;;;;5017814;28;20512;-73
2022/01/23 15:26:57;;;;;;;22.65;17.48;;;7.90;92.90;;;;;;5052929;28;20492;-74
2022/01/23 15:29:24;;;;;;;23.25;19.75;;;7.90;93.70;;;;;;5032652;28;20037;-73
2022/01/23 15:31:51;;;;;;;23.38;19.02;;;7.90;93.90;;;;;;5033196;28;20107;-74
2022/01/23 15:34:18;;;;;;;20.75;16.90;;;7.90;92.90;;;;;;5030630;28;20099;-73
2022/01/23 15:36:46;;;;;;;20.80;17.75;;;7.80;92.90;;;;;;5051944;28;20080;-73
2022/01/23 15:39:15;;;;;;;25.02;19.75;;;7.80;92.70;;;;;;5016245;28;20082;-73
2022/01/23 15:41:42;;;;;;;23.15;19.17;;;7.80;91.80;;;;;;5007011;28;20124;-74
2022/01/23 15:44:09;;;;;;;24.33;19.10;;;7.80;91.20;;;;;;5030718;28;20504;-74
2022/01/23 15:46:36;;;;;;;21.40;18.13;;;7.80;91.20;;;;;;5002766;28;20057;-74
2022/01/23 15:49:04;;;;;;;18.75;15.98;;;7.70;90.80;;;;;;4995322;28;20056;-74
2022/01/23 15:51:31;;;;;;;21.30;16.25;;;7.60;90.30;;;;;;4994672;28;20124;-73
2022/01/23 15:53:58;;;;;;;20.38;16.42;;;7.50;90.20;;;;;;5011860;28;20092;-74
2022/01/23 15:56:25;;;;;;;22.48;16.13;;;7.30;90.20;;;;;;5012262;28;20069;-73
2022/01/23 15:58:54;;;;;;;20.08;16.65;;;7.30;91.80;;;;;;5012404;28;20129;-73
2022/01/23 16:01:21;;;;;;;22.00;17.10;;;7.40;92.20;;;;;;5010226;28;20052;-74
2022/01/23 16:03:48;;;;;;;19.25;15.10;;;7.40;92.30;;;;;;5010612;28;20048;-72
2022/01/23 16:06:17;;;;;;;19.63;16.25;;;7.50;93.10;;;;;;5005079;28;20042;-74
2022/01/23 16:08:49;;;;;;;24.77;18.88;;;7.50;94.40;;;;;;5008275;28;20053;-74
2022/01/23 16:11:16;;;;;;;47.90;38.28;;;7.50;93.00;;;;;;5010765;28;20053;-73
2022/01/23 16:13:43;;;;;;;43.10;31.58;;;7.50;92.50;;;;;;5010246;28;20054;-73
2022/01/23 16:16:11;;;;;;;21.00;18.80;;;7.50;93.50;;;;;;5010182;28;20050;-73
2022/01/23 16:18:38;;;;;;;24.45;18.70;;;7.50;91.80;;;;;;5011157;28;20120;-73
2022/01/23 16:21:07;;;;;;;19.05;16.77;;;7.50;93.00;;;;;;5011225;28;20058;-73
2022/01/23 16:23:34;;;;;;;19.00;15.38;;;7.50;92.00;;;;;;5011091;28;20050;-73
2022/01/23 16:26:11;;;;;;;18.63;15.20;;;7.50;92.70;;;;;;5010524;28;20058;-73
2022/01/23 16:28:38;;;;;;;19.70;15.60;;;7.50;94.40;;;;;;5010765;28;20057;-73
2022/01/23 16:31:05;;;;;;;17.50;14.60;;;7.50;94.50;;;;;;5009525;28;20608;-73
2022/01/23 16:33:32;;;;;;;20.98;15.18;;;7.50;94.60;;;;;;4994604;28;20121;-71